sensor_id;sensor_type;location;lat;lon;timestamp;temperature;humidity
22008;DHT22;11168;56.976;24.168;2024-01-15T00:01:43;-0.50;99.90
22008;DHT22;11168;56.976;24.168;2024-01-15T00:04:11;-0.50;99.90
22008;DHT22;11168;56.976;24.168;2024-01-15T00:06:38;-0.50;99.90
22008;DHT22;11168;56.976;24.168;2024-01-15T00:09:06;-0.50;99.90
22008;DHT22;11168;56.976;24.168;2024-01-15T00:11:33;-0.50;99.90
22008;DHT22;11168;56.976;24.168;2024-01-15T00:14:03;-0.50;99.90
22008;DHT22;11168;56.976;24.168;2024-01-15T00:16:30;-0.40;99.90
22008;DHT22;11168;56.976;24.168;2024-01-15T00:18:58;-0.40;99.90
22008;DHT22;11168;56.976;24.168;2024-01-15T00:21:25;-0.40;99.90
22008;DHT22;11168;56.976;24.168;2024-01-15T00:23:52;-0.50;99.90
22008;DHT22;11168;56.976;24.168;2024-01-15T00:26:20;-0.50;99.90
22008;DHT22;11168;56.976;24.168;2024-01-15T00:28:59;-0.40;99.90
22008;DHT22;11168;56.976;24.168;2024-01-15T00:31:26;-0.40;99.90
22008;DHT22;11168;56.976;24.168;2024-01-15T00:33:53;-0.40;99.90
22008;DHT22;11168;56.976;24.168;2024-01-15T00:36:21;-0.40;99.90
22008;DHT22;11168;56.976;24.168;2024-01-15T00:38:49;-0.50;99.90
22008;DHT22;11168;56.976;24.168;2024-01-15T00:41:16;-0.50;99.90
22008;DHT22;11168;56.976;24.168;2024-01-15T00:43:43;-0.50;99.90
22008;DHT22;11168;56.976;24.168;2024-01-15T00:46:10;-0.40;99.90
22008;DHT22;11168;56.976;24.168;2024-01-15T00:48:37;-0.40;99.90
22008;DHT22;11168;56.976;24.168;2024-01-15T00:51:05;-0.40;99.90
22008;DHT22;11168;56.976;24.168;2024-01-15T00:53:32;-0.40;99.90
22008;DHT22;11168;56.976;24.168;2024-01-15T00:55:59;-0.40;99.90
22008;DHT22;11168;56.976;24.168;2024-01-15T00:58:26;-0.40;99.90
22008;DHT22;11168;56.976;24.168;2024-01-15T01:00:53;-0.40;99.90
22008;DHT22;11168;56.976;24.168;2024-01-15T01:03:21;-0.40;99.90
22008;DHT22;11168;56.976;24.168;2024-01-15T01:05:49;-0.40;99.90
22008;DHT22;11168;56.976;24.168;2024-01-15T01:08:19;-0.30;99.90
22008;DHT22;11168;56.976;24.168;2024-01-15T01:10:46;-0.40;99.90
22008;DHT22;11168;56.976;24.168;2024-01-15T01:13:13;-0.40;99.90
22008;DHT22;11168;56.976;24.168;2024-01-15T01:15:40;-0.30;99.90
22008;DHT22;11168;56.976;24.168;2024-01-15T01:18:07;-0.30;99.90
22008;DHT22;11168;56.976;24.168;2024-01-15T01:20:34;-0.30;99.90
22008;DHT22;11168;56.976;24.168;2024-01-15T01:23:01;-0.30;99.90
22008;DHT22;11168;56.976;24.168;2024-01-15T01:25:30;-0.30;99.90
22008;DHT22;11168;56.976;24.168;2024-01-15T01:27:57;-0.30;99.90
22008;DHT22;11168;56.976;24.168;2024-01-15T01:30:24;-0.40;99.90
22008;DHT22;11168;56.976;24.168;2024-01-15T01:32:51;-0.40;99.90
22008;DHT22;11168;56.976;24.168;2024-01-15T01:35:21;-0.40;99.90
22008;DHT22;11168;56.976;24.168;2024-01-15T01:37:51;-0.40;99.90
22008;DHT22;11168;56.976;24.168;2024-01-15T01:40:18;-0.30;99.90
22008;DHT22;11168;56.976;24.168;2024-01-15T01:42:48;-0.40;99.90
22008;DHT22;11168;56.976;24.168;2024-01-15T01:45:15;-0.40;99.90
22008;DHT22;11168;56.976;24.168;2024-01-15T01:47:42;-0.40;99.90
22008;DHT22;11168;56.976;24.168;2024-01-15T01:50:10;-0.40;99.90
22008;DHT22;11168;56.976;24.168;2024-01-15T01:52:37;-0.40;99.90
22008;DHT22;11168;56.976;24.168;2024-01-15T01:55:06;-0.40;99.90
22008;DHT22;11168;56.976;24.168;2024-01-15T01:57:34;-0.40;99.90
22008;DHT22;11168;56.976;24.168;2024-01-15T02:00:05;-0.40;99.90
22008;DHT22;11168;56.976;24.168;2024-01-15T02:02:35;-0.40;99.90
22008;DHT22;11168;56.976;24.168;2024-01-15T02:05:05;-0.40;99.90
22008;DHT22;11168;56.976;24.168;2024-01-15T02:07:34;-0.30;99.90
22008;DHT22;11168;56.976;24.168;2024-01-15T02:10:02;-0.30;99.90
22008;DHT22;11168;56.976;24.168;2024-01-15T02:12:30;-0.30;99.90
22008;DHT22;11168;56.976;24.168;2024-01-15T02:15:00;-0.30;99.90
22008;DHT22;11168;56.976;24.168;2024-01-15T02:17:28;-0.30;99.90
22008;DHT22;11168;56.976;24.168;2024-01-15T02:19:57;-0.30;99.90
22008;DHT22;11168;56.976;24.168;2024-01-15T02:22:24;-0.30;99.90
22008;DHT22;11168;56.976;24.168;2024-01-15T02:24:51;-0.30;99.90
22008;DHT22;11168;56.976;24.168;2024-01-15T02:27:18;-0.30;99.90
22008;DHT22;11168;56.976;24.168;2024-01-15T02:29:46;-0.30;99.90
22008;DHT22;11168;56.976;24.168;2024-01-15T02:32:13;-0.40;99.90
22008;DHT22;11168;56.976;24.168;2024-01-15T02:34:40;-0.40;99.90
22008;DHT22;11168;56.976;24.168;2024-01-15T02:37:08;-0.40;99.90
22008;DHT22;11168;56.976;24.168;2024-01-15T02:39:38;-0.40;99.90
22008;DHT22;11168;56.976;24.168;2024-01-15T02:42:05;-0.40;99.90
22008;DHT22;11168;56.976;24.168;2024-01-15T02:44:32;-0.50;99.90
22008;DHT22;11168;56.976;24.168;2024-01-15T02:46:59;-0.40;99.90
22008;DHT22;11168;56.976;24.168;2024-01-15T02:49:29;-0.50;99.90
22008;DHT22;11168;56.976;24.168;2024-01-15T02:51:56;-0.40;99.90
22008;DHT22;11168;56.976;24.168;2024-01-15T02:54:23;-0.50;99.90
22008;DHT22;11168;56.976;24.168;2024-01-15T02:56:50;-0.50;99.90
22008;DHT22;11168;56.976;24.168;2024-01-15T02:59:17;-0.50;99.90
22008;DHT22;11168;56.976;24.168;2024-01-15T03:01:44;-0.50;99.90
22008;DHT22;11168;56.976;24.168;2024-01-15T03:04:11;-0.50;99.90
22008;DHT22;11168;56.976;24.168;2024-01-15T03:06:39;-0.50;99.90
22008;DHT22;11168;56.976;24.168;2024-01-15T03:09:06;-0.50;99.90
22008;DHT22;11168;56.976;24.168;2024-01-15T03:11:39;-0.50;99.90
22008;DHT22;11168;56.976;24.168;2024-01-15T03:14:07;-0.50;99.90
22008;DHT22;11168;56.976;24.168;2024-01-15T03:16:34;-0.50;99.90
22008;DHT22;11168;56.976;24.168;2024-01-15T03:19:02;-0.50;99.90
22008;DHT22;11168;56.976;24.168;2024-01-15T03:21:29;-0.50;99.90
22008;DHT22;11168;56.976;24.168;2024-01-15T03:23:56;-0.50;99.90
22008;DHT22;11168;56.976;24.168;2024-01-15T03:26:26;-0.50;99.90
22008;DHT22;11168;56.976;24.168;2024-01-15T03:28:53;-0.50;99.90
22008;DHT22;11168;56.976;24.168;2024-01-15T03:31:20;-0.50;99.90
22008;DHT22;11168;56.976;24.168;2024-01-15T03:33:47;-0.50;99.90
22008;DHT22;11168;56.976;24.168;2024-01-15T03:36:14;-0.50;99.90
22008;DHT22;11168;56.976;24.168;2024-01-15T03:38:41;-0.50;99.90
22008;DHT22;11168;56.976;24.168;2024-01-15T03:41:09;-0.50;99.90
22008;DHT22;11168;56.976;24.168;2024-01-15T03:43:36;-0.50;99.90
22008;DHT22;11168;56.976;24.168;2024-01-15T03:46:03;-0.50;99.90
22008;DHT22;11168;56.976;24.168;2024-01-15T03:48:31;-0.50;99.90
22008;DHT22;11168;56.976;24.168;2024-01-15T03:50:58;-0.50;99.90
22008;DHT22;11168;56.976;24.168;2024-01-15T03:53:25;-0.50;99.90
22008;DHT22;11168;56.976;24.168;2024-01-15T03:55:52;-0.50;99.90
22008;DHT22;11168;56.976;24.168;2024-01-15T03:58:19;-0.50;99.90
22008;DHT22;11168;56.976;24.168;2024-01-15T04:00:46;-0.50;99.90
22008;DHT22;11168;56.976;24.168;2024-01-15T04:03:13;-0.50;99.90
22008;DHT22;11168;56.976;24.168;2024-01-15T04:05:41;-0.50;99.90
22008;DHT22;11168;56.976;24.168;2024-01-15T04:08:08;-0.50;99.90
22008;DHT22;11168;56.976;24.168;2024-01-15T04:10:35;-0.50;99.90
22008;DHT22;11168;56.976;24.168;2024-01-15T04:13:02;-0.50;99.90
22008;DHT22;11168;56.976;24.168;2024-01-15T04:15:30;-0.50;99.90
22008;DHT22;11168;56.976;24.168;2024-01-15T04:17:57;-0.50;99.90
22008;DHT22;11168;56.976;24.168;2024-01-15T04:20:24;-0.50;99.90
22008;DHT22;11168;56.976;24.168;2024-01-15T04:22:52;-0.50;99.90
22008;DHT22;11168;56.976;24.168;2024-01-15T04:25:19;-0.50;99.90
22008;DHT22;11168;56.976;24.168;2024-01-15T04:27:46;-0.40;99.90
22008;DHT22;11168;56.976;24.168;2024-01-15T04:30:13;-0.50;99.90
22008;DHT22;11168;56.976;24.168;2024-01-15T04:32:40;-0.50;99.90
22008;DHT22;11168;56.976;24.168;2024-01-15T04:35:07;-0.50;99.90
22008;DHT22;11168;56.976;24.168;2024-01-15T04:37:35;-0.50;99.90
22008;DHT22;11168;56.976;24.168;2024-01-15T04:40:02;-0.50;99.90
22008;DHT22;11168;56.976;24.168;2024-01-15T04:42:36;-0.50;99.90
22008;DHT22;11168;56.976;24.168;2024-01-15T04:45:05;-0.50;99.90
22008;DHT22;11168;56.976;24.168;2024-01-15T04:47:35;-0.50;99.90
22008;DHT22;11168;56.976;24.168;2024-01-15T04:50:04;-0.50;99.90
22008;DHT22;11168;56.976;24.168;2024-01-15T04:52:34;-0.50;99.90
22008;DHT22;11168;56.976;24.168;2024-01-15T04:55:01;-0.50;99.90
22008;DHT22;11168;56.976;24.168;2024-01-15T04:57:28;-0.50;99.90
22008;DHT22;11168;56.976;24.168;2024-01-15T04:59:55;-0.50;99.90
22008;DHT22;11168;56.976;24.168;2024-01-15T05:02:24;-0.40;99.90
22008;DHT22;11168;56.976;24.168;2024-01-15T05:04:53;-0.40;99.90
22008;DHT22;11168;56.976;24.168;2024-01-15T05:07:20;-0.40;99.90
22008;DHT22;11168;56.976;24.168;2024-01-15T05:09:50;-0.40;99.90
22008;DHT22;11168;56.976;24.168;2024-01-15T05:12:17;-0.40;99.90
22008;DHT22;11168;56.976;24.168;2024-01-15T05:14:45;-0.40;99.90
22008;DHT22;11168;56.976;24.168;2024-01-15T05:17:12;-0.40;99.90
22008;DHT22;11168;56.976;24.168;2024-01-15T05:19:39;-0.40;99.90
22008;DHT22;11168;56.976;24.168;2024-01-15T05:22:07;-0.40;99.90
22008;DHT22;11168;56.976;24.168;2024-01-15T05:24:34;-0.40;99.90
22008;DHT22;11168;56.976;24.168;2024-01-15T05:27:01;-0.30;99.90
22008;DHT22;11168;56.976;24.168;2024-01-15T05:29:30;-0.30;99.90
22008;DHT22;11168;56.976;24.168;2024-01-15T05:31:57;-0.30;99.90
22008;DHT22;11168;56.976;24.168;2024-01-15T05:34:28;-0.30;99.90
22008;DHT22;11168;56.976;24.168;2024-01-15T05:36:55;-0.30;99.90
22008;DHT22;11168;56.976;24.168;2024-01-15T05:39:25;-0.30;99.90
22008;DHT22;11168;56.976;24.168;2024-01-15T05:41:52;-0.30;99.90
22008;DHT22;11168;56.976;24.168;2024-01-15T05:44:19;-0.40;99.90
22008;DHT22;11168;56.976;24.168;2024-01-15T05:46:49;-0.30;99.90
22008;DHT22;11168;56.976;24.168;2024-01-15T05:49:16;-0.40;99.90
22008;DHT22;11168;56.976;24.168;2024-01-15T05:51:45;-0.30;99.90
22008;DHT22;11168;56.976;24.168;2024-01-15T05:54:12;-0.30;99.90
22008;DHT22;11168;56.976;24.168;2024-01-15T05:56:39;-0.30;99.90
22008;DHT22;11168;56.976;24.168;2024-01-15T05:59:06;-0.30;99.90
22008;DHT22;11168;56.976;24.168;2024-01-15T06:01:33;-0.30;99.90
22008;DHT22;11168;56.976;24.168;2024-01-15T06:04:01;-0.40;99.90
22008;DHT22;11168;56.976;24.168;2024-01-15T06:06:28;-0.30;99.90
22008;DHT22;11168;56.976;24.168;2024-01-15T06:08:57;-0.30;99.90
22008;DHT22;11168;56.976;24.168;2024-01-15T06:11:32;-0.40;99.90
22008;DHT22;11168;56.976;24.168;2024-01-15T06:14:02;-0.30;99.90
22008;DHT22;11168;56.976;24.168;2024-01-15T06:16:29;-0.30;99.90
22008;DHT22;11168;56.976;24.168;2024-01-15T06:18:56;-0.30;99.90
22008;DHT22;11168;56.976;24.168;2024-01-15T06:21:24;-0.30;99.90
22008;DHT22;11168;56.976;24.168;2024-01-15T06:23:52;-0.30;99.90
22008;DHT22;11168;56.976;24.168;2024-01-15T06:26:23;-0.30;99.90
22008;DHT22;11168;56.976;24.168;2024-01-15T06:28:52;-0.30;99.90
22008;DHT22;11168;56.976;24.168;2024-01-15T06:31:19;-0.30;99.90
22008;DHT22;11168;56.976;24.168;2024-01-15T06:33:47;-0.30;99.90
22008;DHT22;11168;56.976;24.168;2024-01-15T06:36:18;-0.30;99.90
22008;DHT22;11168;56.976;24.168;2024-01-15T06:38:46;-0.20;99.90
22008;DHT22;11168;56.976;24.168;2024-01-15T06:41:13;-0.20;99.90
22008;DHT22;11168;56.976;24.168;2024-01-15T06:43:40;-0.30;99.90
22008;DHT22;11168;56.976;24.168;2024-01-15T06:46:07;-0.20;99.90
22008;DHT22;11168;56.976;24.168;2024-01-15T06:48:34;-0.20;99.90
22008;DHT22;11168;56.976;24.168;2024-01-15T06:51:02;-0.20;99.90
22008;DHT22;11168;56.976;24.168;2024-01-15T06:53:31;-0.20;99.90
22008;DHT22;11168;56.976;24.168;2024-01-15T06:55:58;-0.20;99.90
22008;DHT22;11168;56.976;24.168;2024-01-15T06:58:25;-0.20;99.90
22008;DHT22;11168;56.976;24.168;2024-01-15T07:00:52;-0.20;99.90
22008;DHT22;11168;56.976;24.168;2024-01-15T07:03:20;-0.10;99.90
22008;DHT22;11168;56.976;24.168;2024-01-15T07:05:47;-0.10;99.90
22008;DHT22;11168;56.976;24.168;2024-01-15T07:08:15;-0.10;99.90
22008;DHT22;11168;56.976;24.168;2024-01-15T07:10:42;-0.10;99.90
22008;DHT22;11168;56.976;24.168;2024-01-15T07:13:09;-0.10;99.90
22008;DHT22;11168;56.976;24.168;2024-01-15T07:15:36;-0.10;99.90
22008;DHT22;11168;56.976;24.168;2024-01-15T07:18:03;-0.10;99.90
22008;DHT22;11168;56.976;24.168;2024-01-15T07:20:30;-0.10;99.90
22008;DHT22;11168;56.976;24.168;2024-01-15T07:22:57;-0.10;99.90
22008;DHT22;11168;56.976;24.168;2024-01-15T07:25:24;0.00;99.90
22008;DHT22;11168;56.976;24.168;2024-01-15T07:27:53;0.00;99.90
22008;DHT22;11168;56.976;24.168;2024-01-15T07:30:21;0.00;99.90
22008;DHT22;11168;56.976;24.168;2024-01-15T07:32:51;-0.10;99.90
22008;DHT22;11168;56.976;24.168;2024-01-15T07:35:20;0.00;99.90
22008;DHT22;11168;56.976;24.168;2024-01-15T07:37:48;0.00;99.90
22008;DHT22;11168;56.976;24.168;2024-01-15T07:40:15;0.00;99.90
22008;DHT22;11168;56.976;24.168;2024-01-15T07:42:42;0.00;99.90
22008;DHT22;11168;56.976;24.168;2024-01-15T07:45:10;0.00;99.90
22008;DHT22;11168;56.976;24.168;2024-01-15T07:47:38;0.00;99.90
22008;DHT22;11168;56.976;24.168;2024-01-15T07:50:05;0.00;99.90
22008;DHT22;11168;56.976;24.168;2024-01-15T07:52:34;0.00;99.90
22008;DHT22;11168;56.976;24.168;2024-01-15T07:55:02;0.00;99.90
22008;DHT22;11168;56.976;24.168;2024-01-15T07:57:32;0.00;99.90
22008;DHT22;11168;56.976;24.168;2024-01-15T08:00:00;0.10;99.90
22008;DHT22;11168;56.976;24.168;2024-01-15T08:02:28;0.10;99.90
22008;DHT22;11168;56.976;24.168;2024-01-15T08:04:57;0.20;99.90
22008;DHT22;11168;56.976;24.168;2024-01-15T08:07:25;0.20;99.90
22008;DHT22;11168;56.976;24.168;2024-01-15T08:09:52;0.20;99.90
22008;DHT22;11168;56.976;24.168;2024-01-15T08:12:21;0.20;99.90
22008;DHT22;11168;56.976;24.168;2024-01-15T08:14:49;0.20;99.90
22008;DHT22;11168;56.976;24.168;2024-01-15T08:17:16;0.20;99.90
22008;DHT22;11168;56.976;24.168;2024-01-15T08:19:44;0.20;99.90
22008;DHT22;11168;56.976;24.168;2024-01-15T08:22:11;0.20;99.90
22008;DHT22;11168;56.976;24.168;2024-01-15T08:24:38;0.30;99.90
22008;DHT22;11168;56.976;24.168;2024-01-15T08:27:05;0.30;99.90
22008;DHT22;11168;56.976;24.168;2024-01-15T08:29:32;0.30;99.90
22008;DHT22;11168;56.976;24.168;2024-01-15T08:32:04;0.30;99.90
22008;DHT22;11168;56.976;24.168;2024-01-15T08:34:31;0.30;99.90
22008;DHT22;11168;56.976;24.168;2024-01-15T08:36:58;0.40;99.90
22008;DHT22;11168;56.976;24.168;2024-01-15T08:39:25;0.40;99.90
22008;DHT22;11168;56.976;24.168;2024-01-15T08:41:52;0.40;99.90
22008;DHT22;11168;56.976;24.168;2024-01-15T08:44:21;0.50;99.90
22008;DHT22;11168;56.976;24.168;2024-01-15T08:46:51;0.50;99.90
22008;DHT22;11168;56.976;24.168;2024-01-15T08:49:18;0.50;99.90
22008;DHT22;11168;56.976;24.168;2024-01-15T08:51:45;0.50;99.90
22008;DHT22;11168;56.976;24.168;2024-01-15T08:54:12;0.60;99.90
22008;DHT22;11168;56.976;24.168;2024-01-15T08:56:40;0.60;99.90
22008;DHT22;11168;56.976;24.168;2024-01-15T08:59:09;0.60;99.90
22008;DHT22;11168;56.976;24.168;2024-01-15T09:01:38;0.60;99.90
22008;DHT22;11168;56.976;24.168;2024-01-15T09:04:07;0.60;99.90
22008;DHT22;11168;56.976;24.168;2024-01-15T09:06:34;0.60;99.90
22008;DHT22;11168;56.976;24.168;2024-01-15T09:09:02;0.60;99.90
22008;DHT22;11168;56.976;24.168;2024-01-15T09:11:36;0.70;99.90
22008;DHT22;11168;56.976;24.168;2024-01-15T09:14:03;0.70;99.90
22008;DHT22;11168;56.976;24.168;2024-01-15T09:16:30;0.70;99.90
22008;DHT22;11168;56.976;24.168;2024-01-15T09:18:58;0.70;99.90
22008;DHT22;11168;56.976;24.168;2024-01-15T09:21:31;0.70;99.90
22008;DHT22;11168;56.976;24.168;2024-01-15T09:23:58;0.80;99.90
22008;DHT22;11168;56.976;24.168;2024-01-15T09:26:25;0.70;99.90
22008;DHT22;11168;56.976;24.168;2024-01-15T09:28:52;0.70;99.90
22008;DHT22;11168;56.976;24.168;2024-01-15T09:31:20;0.70;99.90
22008;DHT22;11168;56.976;24.168;2024-01-15T09:33:48;0.80;99.90
22008;DHT22;11168;56.976;24.168;2024-01-15T09:36:16;0.80;99.90
22008;DHT22;11168;56.976;24.168;2024-01-15T09:38:43;0.70;99.90
22008;DHT22;11168;56.976;24.168;2024-01-15T09:41:15;0.80;99.90
22008;DHT22;11168;56.976;24.168;2024-01-15T09:43:43;0.80;99.90
22008;DHT22;11168;56.976;24.168;2024-01-15T09:46:10;0.90;99.90
22008;DHT22;11168;56.976;24.168;2024-01-15T09:48:38;0.90;99.90
22008;DHT22;11168;56.976;24.168;2024-01-15T09:51:06;0.90;99.90
22008;DHT22;11168;56.976;24.168;2024-01-15T09:53:36;0.90;99.90
22008;DHT22;11168;56.976;24.168;2024-01-15T09:56:04;1.00;99.90
22008;DHT22;11168;56.976;24.168;2024-01-15T09:58:33;1.00;99.90
22008;DHT22;11168;56.976;24.168;2024-01-15T10:01:01;1.00;99.90
22008;DHT22;11168;56.976;24.168;2024-01-15T10:03:34;1.10;99.90
22008;DHT22;11168;56.976;24.168;2024-01-15T10:06:01;1.00;99.90
22008;DHT22;11168;56.976;24.168;2024-01-15T10:08:29;1.00;99.90
22008;DHT22;11168;56.976;24.168;2024-01-15T10:10:56;1.00;99.90
22008;DHT22;11168;56.976;24.168;2024-01-15T10:13:23;1.10;99.90
22008;DHT22;11168;56.976;24.168;2024-01-15T10:15:50;1.10;99.90
22008;DHT22;11168;56.976;24.168;2024-01-15T10:18:18;1.10;99.90
22008;DHT22;11168;56.976;24.168;2024-01-15T10:20:50;1.10;99.90
22008;DHT22;11168;56.976;24.168;2024-01-15T10:23:17;1.10;99.90
22008;DHT22;11168;56.976;24.168;2024-01-15T10:25:44;1.10;99.90
22008;DHT22;11168;56.976;24.168;2024-01-15T10:28:13;1.20;99.90
22008;DHT22;11168;56.976;24.168;2024-01-15T10:30:41;1.10;99.90
22008;DHT22;11168;56.976;24.168;2024-01-15T10:33:11;1.20;99.90
22008;DHT22;11168;56.976;24.168;2024-01-15T10:35:39;1.20;99.90
22008;DHT22;11168;56.976;24.168;2024-01-15T10:38:07;1.20;99.90
22008;DHT22;11168;56.976;24.168;2024-01-15T10:40:34;1.20;99.90
22008;DHT22;11168;56.976;24.168;2024-01-15T10:43:10;1.20;99.90
22008;DHT22;11168;56.976;24.168;2024-01-15T10:45:37;1.20;99.90
22008;DHT22;11168;56.976;24.168;2024-01-15T10:48:05;1.20;99.90
22008;DHT22;11168;56.976;24.168;2024-01-15T10:50:33;1.20;99.90
22008;DHT22;11168;56.976;24.168;2024-01-15T10:53:00;1.20;99.90
22008;DHT22;11168;56.976;24.168;2024-01-15T10:55:28;1.20;99.90
22008;DHT22;11168;56.976;24.168;2024-01-15T10:57:57;1.20;99.90
22008;DHT22;11168;56.976;24.168;2024-01-15T11:00:25;1.10;99.90
22008;DHT22;11168;56.976;24.168;2024-01-15T11:02:52;1.20;99.90
22008;DHT22;11168;56.976;24.168;2024-01-15T11:05:22;1.20;99.90
22008;DHT22;11168;56.976;24.168;2024-01-15T11:07:50;1.20;99.90
22008;DHT22;11168;56.976;24.168;2024-01-15T11:10:39;1.20;99.90
22008;DHT22;11168;56.976;24.168;2024-01-15T11:16:07;1.20;99.90
22008;DHT22;11168;56.976;24.168;2024-01-15T11:21:20;1.20;99.90
22008;DHT22;11168;56.976;24.168;2024-01-15T11:23:56;1.20;99.90
22008;DHT22;11168;56.976;24.168;2024-01-15T11:29:07;1.20;99.90
22008;DHT22;11168;56.976;24.168;2024-01-15T11:34:09;1.20;99.90
22008;DHT22;11168;56.976;24.168;2024-01-15T11:39:40;1.20;99.90
22008;DHT22;11168;56.976;24.168;2024-01-15T11:42:11;1.20;99.90
22008;DHT22;11168;56.976;24.168;2024-01-15T11:44:38;1.20;99.90
22008;DHT22;11168;56.976;24.168;2024-01-15T11:47:07;1.20;99.90
22008;DHT22;11168;56.976;24.168;2024-01-15T11:50:02;1.20;99.90
22008;DHT22;11168;56.976;24.168;2024-01-15T11:52:34;1.20;99.90
22008;DHT22;11168;56.976;24.168;2024-01-15T11:55:11;1.20;99.90
22008;DHT22;11168;56.976;24.168;2024-01-15T11:57:48;1.20;99.90
22008;DHT22;11168;56.976;24.168;2024-01-15T12:00:19;1.20;99.90
22008;DHT22;11168;56.976;24.168;2024-01-15T12:02:51;1.20;99.90
22008;DHT22;11168;56.976;24.168;2024-01-15T12:05:19;1.20;99.90
22008;DHT22;11168;56.976;24.168;2024-01-15T12:07:49;1.20;99.90
22008;DHT22;11168;56.976;24.168;2024-01-15T12:10:21;1.20;99.90
22008;DHT22;11168;56.976;24.168;2024-01-15T12:13:05;1.20;99.90
22008;DHT22;11168;56.976;24.168;2024-01-15T12:15:34;1.20;99.90
22008;DHT22;11168;56.976;24.168;2024-01-15T12:18:02;1.20;99.90
22008;DHT22;11168;56.976;24.168;2024-01-15T12:20:32;1.20;99.90
22008;DHT22;11168;56.976;24.168;2024-01-15T12:23:01;1.20;99.90
22008;DHT22;11168;56.976;24.168;2024-01-15T12:25:35;1.20;99.90
22008;DHT22;11168;56.976;24.168;2024-01-15T12:28:03;1.20;99.90
22008;DHT22;11168;56.976;24.168;2024-01-15T12:30:34;1.20;99.90
22008;DHT22;11168;56.976;24.168;2024-01-15T12:33:05;1.20;99.90
22008;DHT22;11168;56.976;24.168;2024-01-15T12:35:36;1.20;99.90
22008;DHT22;11168;56.976;24.168;2024-01-15T12:38:03;1.20;99.90
22008;DHT22;11168;56.976;24.168;2024-01-15T12:40:33;1.20;99.90
22008;DHT22;11168;56.976;24.168;2024-01-15T12:43:05;1.20;99.90
22008;DHT22;11168;56.976;24.168;2024-01-15T12:45:34;1.20;99.90
22008;DHT22;11168;56.976;24.168;2024-01-15T12:48:03;1.20;99.90
22008;DHT22;11168;56.976;24.168;2024-01-15T12:50:35;1.20;99.90
22008;DHT22;11168;56.976;24.168;2024-01-15T12:53:03;1.20;99.90
22008;DHT22;11168;56.976;24.168;2024-01-15T12:55:30;1.20;99.90
22008;DHT22;11168;56.976;24.168;2024-01-15T12:57:57;1.20;99.90
22008;DHT22;11168;56.976;24.168;2024-01-15T13:00:25;1.10;99.90
22008;DHT22;11168;56.976;24.168;2024-01-15T13:02:53;1.20;99.90
22008;DHT22;11168;56.976;24.168;2024-01-15T13:05:22;1.20;99.90
22008;DHT22;11168;56.976;24.168;2024-01-15T13:07:52;1.10;99.90
22008;DHT22;11168;56.976;24.168;2024-01-15T13:10:19;1.20;99.90
22008;DHT22;11168;56.976;24.168;2024-01-15T13:12:52;1.10;99.90
22008;DHT22;11168;56.976;24.168;2024-01-15T13:15:20;1.10;99.90
22008;DHT22;11168;56.976;24.168;2024-01-15T13:17:47;1.10;99.90
22008;DHT22;11168;56.976;24.168;2024-01-15T13:20:15;1.10;99.90
22008;DHT22;11168;56.976;24.168;2024-01-15T13:22:42;1.10;99.90
22008;DHT22;11168;56.976;24.168;2024-01-15T13:25:12;1.10;99.90
22008;DHT22;11168;56.976;24.168;2024-01-15T13:27:39;1.10;99.90
22008;DHT22;11168;56.976;24.168;2024-01-15T13:30:08;1.10;99.90
22008;DHT22;11168;56.976;24.168;2024-01-15T13:32:37;1.10;99.90
22008;DHT22;11168;56.976;24.168;2024-01-15T13:35:05;1.10;99.90
22008;DHT22;11168;56.976;24.168;2024-01-15T13:37:37;1.10;99.90
22008;DHT22;11168;56.976;24.168;2024-01-15T13:40:05;1.10;99.90
22008;DHT22;11168;56.976;24.168;2024-01-15T13:42:36;1.10;99.90
22008;DHT22;11168;56.976;24.168;2024-01-15T13:45:09;1.10;99.90
22008;DHT22;11168;56.976;24.168;2024-01-15T13:47:37;1.10;99.90
22008;DHT22;11168;56.976;24.168;2024-01-15T13:50:05;1.10;99.90
22008;DHT22;11168;56.976;24.168;2024-01-15T13:52:32;1.10;99.90
22008;DHT22;11168;56.976;24.168;2024-01-15T13:54:59;1.10;99.90
22008;DHT22;11168;56.976;24.168;2024-01-15T13:57:27;1.10;99.90
22008;DHT22;11168;56.976;24.168;2024-01-15T13:59:54;1.00;99.90
22008;DHT22;11168;56.976;24.168;2024-01-15T14:02:21;1.00;99.90
22008;DHT22;11168;56.976;24.168;2024-01-15T14:04:52;1.10;99.90
22008;DHT22;11168;56.976;24.168;2024-01-15T14:07:21;1.10;99.90
22008;DHT22;11168;56.976;24.168;2024-01-15T14:09:48;1.00;99.90
22008;DHT22;11168;56.976;24.168;2024-01-15T14:12:16;1.10;99.90
22008;DHT22;11168;56.976;24.168;2024-01-15T14:14:43;1.00;99.90
22008;DHT22;11168;56.976;24.168;2024-01-15T14:17:12;1.00;99.90
22008;DHT22;11168;56.976;24.168;2024-01-15T14:19:40;1.00;99.90
22008;DHT22;11168;56.976;24.168;2024-01-15T14:22:08;1.00;99.90
22008;DHT22;11168;56.976;24.168;2024-01-15T14:24:35;1.00;99.90
22008;DHT22;11168;56.976;24.168;2024-01-15T14:27:03;1.00;99.90
22008;DHT22;11168;56.976;24.168;2024-01-15T14:29:33;1.00;99.90
22008;DHT22;11168;56.976;24.168;2024-01-15T14:32:01;1.00;99.90
22008;DHT22;11168;56.976;24.168;2024-01-15T14:34:29;1.00;99.90
22008;DHT22;11168;56.976;24.168;2024-01-15T14:36:58;1.10;99.90
22008;DHT22;11168;56.976;24.168;2024-01-15T14:39:26;1.00;99.90
22008;DHT22;11168;56.976;24.168;2024-01-15T14:41:53;1.00;99.90
22008;DHT22;11168;56.976;24.168;2024-01-15T14:44:20;1.00;99.90
22008;DHT22;11168;56.976;24.168;2024-01-15T14:46:50;1.00;99.90
22008;DHT22;11168;56.976;24.168;2024-01-15T14:49:17;1.00;99.90
22008;DHT22;11168;56.976;24.168;2024-01-15T14:51:45;1.10;99.90
22008;DHT22;11168;56.976;24.168;2024-01-15T14:54:13;1.00;99.90
22008;DHT22;11168;56.976;24.168;2024-01-15T14:56:41;1.10;99.90
22008;DHT22;11168;56.976;24.168;2024-01-15T14:59:13;1.10;99.90
22008;DHT22;11168;56.976;24.168;2024-01-15T15:01:41;1.10;99.90
22008;DHT22;11168;56.976;24.168;2024-01-15T15:04:12;1.10;99.90
22008;DHT22;11168;56.976;24.168;2024-01-15T15:06:39;1.10;99.90
22008;DHT22;11168;56.976;24.168;2024-01-15T15:09:06;1.10;99.90
22008;DHT22;11168;56.976;24.168;2024-01-15T15:11:37;1.10;99.90
22008;DHT22;11168;56.976;24.168;2024-01-15T15:14:05;1.10;99.90
22008;DHT22;11168;56.976;24.168;2024-01-15T15:16:34;1.10;99.90
22008;DHT22;11168;56.976;24.168;2024-01-15T15:19:02;1.10;99.90
22008;DHT22;11168;56.976;24.168;2024-01-15T15:21:30;1.10;99.90
22008;DHT22;11168;56.976;24.168;2024-01-15T15:23:57;1.10;99.90
22008;DHT22;11168;56.976;24.168;2024-01-15T15:26:24;1.10;99.90
22008;DHT22;11168;56.976;24.168;2024-01-15T15:28:51;1.10;99.90
22008;DHT22;11168;56.976;24.168;2024-01-15T15:31:19;1.10;99.90
22008;DHT22;11168;56.976;24.168;2024-01-15T15:33:46;1.10;99.90
22008;DHT22;11168;56.976;24.168;2024-01-15T15:36:15;1.10;99.90
22008;DHT22;11168;56.976;24.168;2024-01-15T15:38:43;1.00;99.90
22008;DHT22;11168;56.976;24.168;2024-01-15T15:41:11;1.00;99.90
22008;DHT22;11168;56.976;24.168;2024-01-15T15:43:38;1.10;99.90